Time;durP1;ratioP1;P1;durP2;ratioP2;P2;SDS_P1;SDS_P2;PMS_P1;PMS_P2;Temp;Humidity;BMP_temperature;BMP_pressure;BME280_temperature;BME280_humidity;BME280_pressure;Samples;Min_cycle;Max_cycle;Signal;HPM_P1;HPM_P2
2023/08/28 05:52:20;;;;;;;;;;;;;;;19.22;59.17;96212.97;4264149;27;10343;-72
2023/08/28 05:54:23;;;;;;;;;;;;;;;19.38;58.85;96212.00;4264169;27;5888;-71
2023/08/28 05:56:25;;;;;;;;;;;;;;;19.58;58.91;96210.44;4256659;27;5662;-62
2023/08/28 05:58:28;;;;;;;;;;;;;;;19.77;58.75;96201.66;4263962;27;5708;-64
2023/08/28 06:00:31;;;;;;;;;;;;;;;19.95;58.58;96208.41;4259459;27;5628;-61
2023/08/28 06:02:34;;;;;;;;;;;;;;;20.10;57.71;96209.47;4255736;27;5839;-62
2023/08/28 06:04:37;;;;;;;;;;;;;;;20.14;56.61;96207.88;4251647;27;5745;-61
2023/08/28 06:06:40;;;;;;;;;;;;;;;20.04;56.33;96211.34;4250391;27;5753;-62
2023/08/28 06:08:44;;;;;;;;;;;;;;;20.02;56.44;96205.44;4247364;27;5752;-63
2023/08/28 06:10:47;;;;;;;;;;;;;;;19.93;55.76;96215.91;4248133;27;5654;-62
2023/08/28 06:12:50;;;;;;;;;;;;;;;19.78;56.55;96203.25;4247005;27;5657;-64
2023/08/28 06:14:54;;;;;;;;;;;;;;;19.77;56.19;96198.16;4248739;27;5992;-63
2023/08/28 06:16:56;;;;;;;;;;;;;;;19.63;56.46;96202.44;4261166;27;7742;-64
2023/08/28 06:18:59;;;;;;;;;;;;;;;19.55;57.29;96203.75;4259109;27;5670;-62
2023/08/28 06:21:02;;;;;;;;;;;;;;;19.48;56.80;96203.97;4262844;27;5965;-68
2023/08/28 06:23:05;;;;;;;;;;;;;;;19.37;57.02;96205.03;4264853;27;5632;-70
2023/08/28 06:25:10;;;;;;;;;;;;;;;19.34;57.52;96202.84;4265798;27;5679;-65
2023/08/28 06:27:13;;;;;;;;;;;;;;;19.39;57.24;96212.78;4265778;27;5621;-71
2023/08/28 06:29:16;;;;;;;;;;;;;;;19.34;56.61;96210.88;4262497;27;5719;-67
2023/08/28 06:31:19;;;;;;;;;;;;;;;19.31;57.38;96213.28;4253037;27;5642;-70
2023/08/28 06:33:22;;;;;;;;;;;;;;;19.36;57.40;96218.66;4262403;27;5629;-63
2023/08/28 06:35:25;;;;;;;;;;;;;;;19.38;57.22;96221.91;4263763;27;5676;-64
2023/08/28 06:37:27;;;;;;;;;;;;;;;19.38;56.93;96219.22;4264298;27;5646;-67
2023/08/28 06:39:30;;;;;;;;;;;;;;;19.35;57.02;96220.53;4264641;27;5723;-68
2023/08/28 06:41:34;;;;;;;;;;;;;;;19.42;57.67;96221.09;4264712;27;5047;-64
2023/08/28 06:43:37;;;;;;;;;;;;;;;19.50;57.51;96217.13;4265241;27;5752;-63
2023/08/28 06:45:40;;;;;;;;;;;;;;;19.59;57.46;96220.91;4264464;27;5633;-66
2023/08/28 06:47:42;;;;;;;;;;;;;;;19.63;57.67;96222.00;4263824;27;5633;-73
2023/08/28 06:49:45;;;;;;;;;;;;;;;19.68;57.66;96222.00;4265026;27;5628;-66
2023/08/28 06:51:47;;;;;;;;;;;;;;;19.76;57.72;96224.19;4260697;27;5800;-69
2023/08/28 06:53:52;;;;;;;;;;;;;;;19.80;57.55;96231.69;4251709;27;5779;-71
2023/08/28 06:55:55;;;;;;;;;;;;;;;19.84;57.49;96228.22;4248903;27;5625;-64
2023/08/28 06:57:59;;;;;;;;;;;;;;;19.91;57.73;96227.97;4246499;27;5628;-70
2023/08/28 07:00:03;;;;;;;;;;;;;;;19.87;56.31;96226.88;4252319;27;5783;-71
2023/08/28 07:02:06;;;;;;;;;;;;;;;19.86;56.88;96230.66;4253115;27;5617;-64
2023/08/28 07:04:09;;;;;;;;;;;;;;;19.90;57.13;96221.00;4253081;27;5724;-65
2023/08/28 07:06:13;;;;;;;;;;;;;;;19.95;57.21;96221.81;4252461;27;5736;-63
2023/08/28 07:08:16;;;;;;;;;;;;;;;20.04;57.29;96219.38;4239510;27;5663;-63
2023/08/28 07:10:19;;;;;;;;;;;;;;;20.11;56.84;96214.56;4251519;27;5641;-61
2023/08/28 07:12:21;;;;;;;;;;;;;;;20.17;56.72;96218.09;4252626;27;5744;-62
2023/08/28 07:14:26;;;;;;;;;;;;;;;20.23;56.90;96220.47;4251093;27;6299;-61
2023/08/28 07:16:29;;;;;;;;;;;;;;;20.28;56.56;96220.50;4248121;27;5072;-62
2023/08/28 07:18:32;;;;;;;;;;;;;;;20.33;56.65;96217.00;4246662;27;5632;-62
2023/08/28 07:20:35;;;;;;;;;;;;;;;20.35;56.46;96214.84;4248931;27;5783;-64
2023/08/28 07:22:38;;;;;;;;;;;;;;;20.41;56.54;96221.03;4251594;27;5761;-64
2023/08/28 07:24:40;;;;;;;;;;;;;;;20.43;56.50;96224.28;4247463;27;5783;-63
2023/08/28 07:26:43;;;;;;;;;;;;;;;20.46;56.50;96229.09;4251175;27;5716;-65
2023/08/28 07:28:48;;;;;;;;;;;;;;;20.48;56.67;96227.75;4251032;27;5715;-62
2023/08/28 07:30:56;;;;;;;;;;;;;;;20.52;56.40;96228.03;4251955;27;7210;-61
2023/08/28 07:32:59;;;;;;;;;;;;;;;20.55;55.97;96235.56;4249982;27;5776;-62
2023/08/28 07:35:02;;;;;;;;;;;;;;;20.59;56.04;96236.59;4249621;27;5608;-62
2023/08/28 07:37:06;;;;;;;;;;;;;;;20.62;56.19;96236.91;4247555;27;7309;-63
2023/08/28 07:39:09;;;;;;;;;;;;;;;20.63;55.97;96240.38;4252042;27;5716;-62
2023/08/28 07:41:12;;;;;;;;;;;;;;;20.66;55.95;96239.03;4244954;27;5800;-66
2023/08/28 07:43:15;;;;;;;;;;;;;;;20.67;56.12;96228.00;4235313;28;5702;-62
2023/08/28 07:45:18;;;;;;;;;;;;;;;20.67;55.85;96230.69;4246414;27;6329;-61
2023/08/28 07:47:23;;;;;;;;;;;;;;;20.66;55.47;96228.28;4238449;27;5733;-62
2023/08/28 07:49:26;;;;;;;;;;;;;;;20.66;55.67;96228.28;4251302;27;5636;-62
2023/08/28 07:51:28;;;;;;;;;;;;;;;20.68;55.50;96232.31;4251629;27;5088;-64
2023/08/28 07:53:31;;;;;;;;;;;;;;;20.70;55.68;96222.09;4252742;27;5703;-61
2023/08/28 07:55:35;;;;;;;;;;;;;;;20.71;55.40;96218.31;4251902;27;5752;-62
2023/08/28 07:57:37;;;;;;;;;;;;;;;20.72;55.62;96211.88;4251747;27;5859;-62
2023/08/28 07:59:41;;;;;;;;;;;;;;;20.72;55.34;96219.13;4252765;27;5645;-61
2023/08/28 08:01:44;;;;;;;;;;;;;;;20.70;55.34;96207.84;4236280;27;5761;-61
2023/08/28 08:03:49;;;;;;;;;;;;;;;20.70;54.97;96214.03;4250543;27;5621;-61
2023/08/28 08:05:52;;;;;;;;;;;;;;;20.67;54.31;96211.91;4251398;27;5636;-62
2023/08/28 08:07:55;;;;;;;;;;;;;;;20.61;53.65;96210.28;4252258;27;5807;-61
2023/08/28 08:09:58;;;;;;;;;;;;;;;20.53;53.93;96205.47;4250430;27;5985;-62
2023/08/28 08:12:02;;;;;;;;;;;;;;;20.54;53.98;96207.09;4247693;27;7671;-66
2023/08/28 08:14:05;;;;;;;;;;;;;;;20.56;53.14;96210.31;4235238;27;5733;-63
2023/08/28 08:16:08;;;;;;;;;;;;;;;20.51;53.34;96202.28;4235345;28;5658;-62
2023/08/28 08:18:11;;;;;;;;;;;;;;;20.45;52.78;96206.81;4235449;28;5654;-61
2023/08/28 08:20:15;;;;;;;;;;;;;;;20.46;53.48;96211.13;4243111;27;5711;-61
2023/08/28 08:22:18;;;;;;;;;;;;;;;20.46;52.96;96208.44;4251809;27;5718;-62
2023/08/28 08:24:20;;;;;;;;;;;;;;;20.50;53.11;96203.31;4250979;27;5663;-61
2023/08/28 08:26:23;;;;;;;;;;;;;;;20.54;52.85;96217.84;4251688;27;5621;-61
2023/08/28 08:28:29;;;;;;;;;;;;;;;20.52;52.77;96202.00;4251547;27;5789;-61
2023/08/28 08:30:32;;;;;;;;;;;;;;;20.52;52.16;96201.19;4247953;27;5838;-61
2023/08/28 08:32:35;;;;;;;;;;;;;;;20.47;52.13;96195.81;4250959;27;5613;-61
2023/08/28 08:34:38;;;;;;;;;;;;;;;20.42;52.38;96188.56;4247463;27;5716;-61
2023/08/28 08:36:43;;;;;;;;;;;;;;;20.38;52.43;96194.72;4234908;28;5646;-61
2023/08/28 08:38:45;;;;;;;;;;;;;;;20.41;51.87;96194.19;4235020;27;5678;-61
2023/08/28 08:40:52;;;;;;;;;;;;;;;20.34;51.94;96194.44;4237890;27;5828;-61
2023/08/28 08:42:55;;;;;;;;;;;;;;;20.34;52.42;96192.56;4237810;27;5864;-62
2023/08/28 08:44:57;;;;;;;;;;;;;;;20.41;52.43;96188.81;4235940;27;5910;-62
2023/08/28 08:47:03;;;;;;;;;;;;;;;20.49;52.05;96190.97;4249160;27;5661;-62
2023/08/28 08:49:09;;;;;;;;;;;;;;;20.55;52.31;96196.06;4234757;28;5770;-61
2023/08/28 08:51:17;;;;;;;;;;;;;;;20.62;52.07;96201.97;4245672;27;5624;-61
2023/08/28 08:53:31;;;;;;;;;;;;;;;20.68;52.13;96194.72;4247590;27;5625;-62
2023/08/28 08:55:41;;;;;;;;;;;;;;;20.74;52.06;96207.06;4242737;27;5779;-61
2023/08/28 08:57:48;;;;;;;;;;;;;;;20.77;51.65;96203.03;4247680;27;5636;-61
2023/08/28 08:59:53;;;;;;;;;;;;;;;20.73;51.46;96200.09;4247643;27;5632;-61
2023/08/28 09:01:59;;;;;;;;;;;;;;;20.70;50.10;96207.84;4246842;27;6358;-61
2023/08/28 09:04:03;;;;;;;;;;;;;;;20.58;50.82;96197.41;4246072;27;5633;-61
2023/08/28 09:06:07;;;;;;;;;;;;;;;20.55;51.29;96195.28;4244139;27;5643;-61
2023/08/28 09:08:11;;;;;;;;;;;;;;;20.59;51.26;96190.97;4249240;27;5620;-61
2023/08/28 09:10:16;;;;;;;;;;;;;;;20.66;51.07;96191.50;4249292;27;5625;-62
2023/08/28 09:12:18;;;;;;;;;;;;;;;20.74;51.09;96198.19;4242096;27;5860;-62
2023/08/28 09:14:21;;;;;;;;;;;;;;;20.78;51.10;96200.06;4242656;27;5792;-61
2023/08/28 09:16:24;;;;;;;;;;;;;;;20.73;50.57;96207.34;4245554;27;5640;-61
2023/08/28 09:18:27;;;;;;;;;;;;;;;20.66;50.71;96202.25;4245113;27;6485;-61
2023/08/28 09:20:29;;;;;;;;;;;;;;;20.67;50.18;96213.78;4249769;27;5754;-62
2023/08/28 09:22:32;;;;;;;;;;;;;;;20.66;50.31;96215.66;4249429;27;5743;-62
2023/08/28 09:24:54;;;;;;;;;;;;;;;20.64;50.07;96207.88;4249456;27;5628;-61
2023/08/28 09:27:03;;;;;;;;;;;;;;;20.63;49.73;96202.78;4238604;27;5729;-63
2023/08/28 09:29:07;;;;;;;;;;;;;;;20.62;49.97;96206.56;4233890;28;5650;-61
2023/08/28 09:31:11;;;;;;;;;;;;;;;20.60;50.34;96201.44;4247395;27;5749;-62
2023/08/28 09:33:14;;;;;;;;;;;;;;;20.68;50.23;96200.06;4240939;27;5748;-62
2023/08/28 09:35:20;;;;;;;;;;;;;;;20.63;50.13;96197.41;4242134;27;5754;-62
2023/08/28 09:37:23;;;;;;;;;;;;;;;20.63;50.27;96203.59;4249991;27;5711;-62
2023/08/28 09:39:26;;;;;;;;;;;;;;;20.66;49.87;96204.94;4243703;27;5640;-62
2023/08/28 09:41:36;;;;;;;;;;;;;;;20.61;49.85;96205.75;4242766;27;5648;-62
2023/08/28 09:43:40;;;;;;;;;;;;;;;20.60;49.91;96209.47;4248212;27;5610;-62
2023/08/28 09:45:46;;;;;;;;;;;;;;;20.60;49.82;96214.84;4249383;27;5641;-61
2023/08/28 09:47:52;;;;;;;;;;;;;;;20.64;50.03;96215.13;4250650;27;6539;-61
2023/08/28 09:49:58;;;;;;;;;;;;;;;20.64;49.47;96205.19;4246342;27;5633;-62
2023/08/28 09:52:03;;;;;;;;;;;;;;;20.58;49.06;96210.84;4249412;27;5609;-61
2023/08/28 09:54:06;;;;;;;;;;;;;;;20.48;49.27;96216.22;4241718;27;5642;-62
2023/08/28 09:56:09;;;;;;;;;;;;;;;20.48;49.50;96216.22;4249618;27;5651;-62
2023/08/28 09:58:12;;;;;;;;;;;;;;;20.57;49.65;96219.97;4250265;27;6329;-61
2023/08/28 10:00:17;;;;;;;;;;;;;;;20.64;49.47;96223.19;4241039;27;5632;-62
2023/08/28 10:02:21;;;;;;;;;;;;;;;20.67;49.54;96222.66;4245916;27;5676;-60
2023/08/28 10:04:25;;;;;;;;;;;;;;;20.59;48.50;96218.63;4245127;27;5653;-61
2023/08/28 10:06:29;;;;;;;;;;;;;;;20.49;48.88;96220.50;4249962;27;5641;-60
2023/08/28 10:08:33;;;;;;;;;;;;;;;20.49;49.19;96225.88;4259394;27;5674;-61
2023/08/28 10:10:40;;;;;;;;;;;;;;;20.56;49.31;96219.16;4249155;27;5797;-61
2023/08/28 10:12:44;;;;;;;;;;;;;;;20.61;49.22;96205.75;4249408;27;5711;-62
2023/08/28 10:14:51;;;;;;;;;;;;;;;20.67;49.03;96203.84;4250374;27;5630;-62
2023/08/28 10:17:00;;;;;;;;;;;;;;;20.67;49.10;96198.47;4250681;27;5640;-62
2023/08/28 10:19:11;;;;;;;;;;;;;;;20.72;49.10;96200.34;4245240;27;7691;-62
2023/08/28 10:21:16;;;;;;;;;;;;;;;20.66;48.82;96196.88;4243313;27;5752;-62
2023/08/28 10:23:21;;;;;;;;;;;;;;;20.65;49.01;96195.25;4240506;27;5790;-63
2023/08/28 10:25:26;;;;;;;;;;;;;;;20.68;48.57;96192.03;4246016;27;6446;-62
2023/08/28 10:27:29;;;;;;;;;;;;;;;20.66;48.79;96196.88;4249785;27;5727;-62
2023/08/28 10:29:34;;;;;;;;;;;;;;;20.70;48.84;96195.25;4241164;27;6423;-70
2023/08/28 10:31:38;;;;;;;;;;;;;;;20.70;48.71;96192.56;4246463;27;6525;-70
2023/08/28 10:33:45;;;;;;;;;;;;;;;20.69;49.01;96190.94;4239105;27;5912;-70
2023/08/28 10:35:52;;;;;;;;;;;;;;;20.70;48.76;96192.56;4246160;27;5820;-69
2023/08/28 10:37:56;;;;;;;;;;;;;;;20.75;48.39;96184.50;4253330;27;5636;-67
2023/08/28 10:40:01;;;;;;;;;;;;;;;20.70;48.46;96189.88;4249203;27;5239;-70
2023/08/28 10:42:05;;;;;;;;;;;;;;;20.72;48.64;96187.72;4247446;27;5745;-67
2023/08/28 10:44:10;;;;;;;;;;;;;;;20.78;48.95;96189.31;4243499;27;5740;-68
2023/08/28 10:46:13;;;;;;;;;;;;;;;20.82;48.85;96185.00;4244085;27;5612;-61
2023/08/28 10:48:17;;;;;;;;;;;;;;;20.82;48.11;96184.19;4236298;27;5638;-61
2023/08/28 10:50:21;;;;;;;;;;;;;;;20.66;47.97;96183.44;4244118;27;5632;-60
2023/08/28 10:52:24;;;;;;;;;;;;;;;20.61;48.34;96184.25;4249525;27;5800;-61
2023/08/28 10:54:36;;;;;;;;;;;;;;;20.64;48.90;96193.66;4244051;27;5609;-59
2023/08/28 10:56:40;;;;;;;;;;;;;;;20.66;48.64;96180.75;4246050;27;5745;-60
2023/08/28 10:58:43;;;;;;;;;;;;;;;20.61;48.64;96183.44;4243665;27;5770;-60
2023/08/28 11:00:46;;;;;;;;;;;;;;;20.51;48.85;96181.59;4247602;27;5663;-60
2023/08/28 11:03:07;;;;;;;;;;;;;;;20.47;49.00;96180.50;4244968;27;5654;-60
2023/08/28 11:05:14;;;;;;;;;;;;;;;20.54;48.88;96191.78;4241692;27;5740;-60
2023/08/28 11:07:46;;;;;;;;;;;;;;;20.57;48.73;96182.38;4251101;27;5814;-61
2023/08/28 11:09:49;;;;;;;;;;;;;;;20.49;49.22;96193.66;4241922;27;5633;-61
2023/08/28 11:11:52;;;;;;;;;;;;;;;20.41;49.02;96189.63;4243321;27;5638;-60
2023/08/28 11:14:02;;;;;;;;;;;;;;;20.44;49.17;96193.66;4245361;27;5642;-60
2023/08/28 11:16:05;;;;;;;;;;;;;;;20.36;49.29;96193.09;4241388;27;5877;-60
2023/08/28 11:18:19;;;;;;;;;;;;;;;20.35;49.33;96191.50;4253617;27;5839;-61
2023/08/28 11:20:23;;;;;;;;;;;;;;;20.36;48.94;96197.66;4243325;27;6650;-61
2023/08/28 11:22:27;;;;;;;;;;;;;;;20.37;49.43;96199.28;4250831;27;5641;-61
2023/08/28 11:24:32;;;;;;;;;;;;;;;20.34;48.99;96195.25;4241462;27;5609;-61
2023/08/28 11:26:44;;;;;;;;;;;;;;;20.29;49.34;96194.47;4249578;27;6061;-62
2023/08/28 11:28:48;;;;;;;;;;;;;;;20.31;49.38;96200.38;4243901;27;5629;-62
2023/08/28 11:30:50;;;;;;;;;;;;;;;20.38;49.11;96203.56;4248917;27;5735;-62
2023/08/28 11:32:55;;;;;;;;;;;;;;;20.35;49.36;96196.84;4238286;27;5757;-61
2023/08/28 11:35:00;;;;;;;;;;;;;;;20.34;49.24;96192.56;4242083;27;5707;-63
2023/08/28 11:37:02;;;;;;;;;;;;;;;20.37;49.34;96193.91;4245722;27;5650;-59
2023/08/28 11:39:05;;;;;;;;;;;;;;;20.46;49.00;96196.88;4240320;27;6112;-61
2023/08/28 11:41:10;;;;;;;;;;;;;;;20.41;48.72;96199.56;4242627;27;5640;-59
2023/08/28 11:43:16;;;;;;;;;;;;;;;20.34;48.98;96200.63;4244487;27;5116;-60
2023/08/28 11:45:20;;;;;;;;;;;;;;;20.39;49.14;96197.16;4246140;27;5644;-61
2023/08/28 11:47:28;;;;;;;;;;;;;;;20.44;49.43;96199.03;4241498;27;5624;-60
2023/08/28 11:49:31;;;;;;;;;;;;;;;20.49;49.17;96196.34;4242679;27;5629;-60
2023/08/28 11:51:37;;;;;;;;;;;;;;;20.54;49.09;96204.41;4246312;27;5846;-60
2023/08/28 11:53:41;;;;;;;;;;;;;;;20.53;49.30;96202.78;4247415;27;5804;-61
2023/08/28 11:55:46;;;;;;;;;;;;;;;20.57;49.08;96209.22;4243655;27;5943;-60
2023/08/28 11:57:51;;;;;;;;;;;;;;;20.53;49.23;96197.44;4245966;27;5887;-60
2023/08/28 11:59:58;;;;;;;;;;;;;;;20.49;49.24;96212.44;4247275;27;5607;-60
2023/08/28 12:02:02;;;;;;;;;;;;;;;20.45;48.88;96211.38;4243158;27;5670;-60
2023/08/28 12:04:06;;;;;;;;;;;;;;;20.27;49.09;96197.41;4246871;27;5619;-60
2023/08/28 12:06:12;;;;;;;;;;;;;;;20.28;48.95;96196.34;4238897;27;5865;-60
2023/08/28 12:08:15;;;;;;;;;;;;;;;20.32;49.38;96207.34;4241839;27;5850;-60
2023/08/28 12:10:19;;;;;;;;;;;;;;;20.31;49.03;96205.72;4240226;27;5621;-60
2023/08/28 12:12:22;;;;;;;;;;;;;;;20.29;49.58;96206.00;4246180;27;5596;-60
2023/08/28 12:14:27;;;;;;;;;;;;;;;20.38;49.52;96203.56;4248139;27;6538;-61
2023/08/28 12:16:29;;;;;;;;;;;;;;;20.49;49.52;96207.06;4245155;27;5769;-59
2023/08/28 12:18:45;;;;;;;;;;;;;;;20.52;49.14;96207.38;4244701;27;6531;-59
2023/08/28 12:20:48;;;;;;;;;;;;;;;20.51;49.22;96213.81;4246585;27;5636;-60
2023/08/28 12:22:55;;;;;;;;;;;;;;;20.40;48.54;96208.69;4245209;27;5629;-59
2023/08/28 12:24:59;;;;;;;;;;;;;;;20.30;48.95;96210.28;4243950;27;5640;-60
2023/08/28 12:27:02;;;;;;;;;;;;;;;20.27;48.88;96208.16;4247256;27;5607;-60
2023/08/28 12:29:05;;;;;;;;;;;;;;;20.24;48.91;96206.00;4248285;27;6495;-60
2023/08/28 12:31:11;;;;;;;;;;;;;;;20.20;49.08;96199.56;4246286;27;5661;-60
2023/08/28 12:33:14;;;;;;;;;;;;;;;20.31;49.27;96203.06;4253840;27;5600;-59
2023/08/28 12:35:17;;;;;;;;;;;;;;;20.40;49.03;96197.94;4242042;27;5716;-60
2023/08/28 12:37:20;;;;;;;;;;;;;;;20.40;48.99;96193.38;4245440;27;5748;-60
2023/08/28 12:39:23;;;;;;;;;;;;;;;20.36;48.67;96187.72;4247927;27;5675;-60
2023/08/28 12:41:25;;;;;;;;;;;;;;;20.36;48.89;96187.72;4252115;27;5616;-59
2023/08/28 12:43:28;;;;;;;;;;;;;;;20.43;48.52;96184.00;4243084;27;5634;-60
2023/08/28 12:45:34;;;;;;;;;;;;;;;20.43;48.58;96189.38;4251007;27;5784;-61
2023/08/28 12:47:40;;;;;;;;;;;;;;;20.45;48.83;96182.66;4234357;27;5786;-60
2023/08/28 12:49:43;;;;;;;;;;;;;;;20.52;48.80;96182.41;4248780;27;5839;-60
2023/08/28 12:51:47;;;;;;;;;;;;;;;20.54;48.81;96185.59;4245259;27;6429;-60
2023/08/28 12:53:49;;;;;;;;;;;;;;;20.60;48.42;96181.81;4239672;27;5715;-60
2023/08/28 12:55:52;;;;;;;;;;;;;;;20.61;48.34;96189.63;4248133;27;5745;-60
2023/08/28 12:57:55;;;;;;;;;;;;;;;20.64;48.44;96180.22;4249799;27;6315;-61
2023/08/28 12:59:58;;;;;;;;;;;;;;;20.68;48.18;96183.97;4247545;27;5750;-60
2023/08/28 13:02:01;;;;;;;;;;;;;;;20.61;48.25;96184.25;4250126;27;5833;-60
2023/08/28 13:04:06;;;;;;;;;;;;;;;20.59;47.99;96185.59;4246641;27;5798;-60
2023/08/28 13:06:09;;;;;;;;;;;;;;;20.57;47.54;96185.06;4246547;27;5658;-60
2023/08/28 13:08:12;;;;;;;;;;;;;;;20.53;47.82;96190.19;4251234;27;5613;-59
2023/08/28 13:10:15;;;;;;;;;;;;;;;20.57;47.54;96180.50;4246521;27;5714;-59
2023/08/28 13:12:19;;;;;;;;;;;;;;;20.54;47.52;96191.78;4243396;27;5803;-59
2023/08/28 13:14:23;;;;;;;;;;;;;;;20.53;47.40;96194.75;4242868;27;5777;-59
2023/08/28 13:16:27;;;;;;;;;;;;;;;20.53;47.61;96194.75;4243375;27;5708;-60
2023/08/28 13:18:29;;;;;;;;;;;;;;;20.56;47.61;96200.38;4247193;27;5629;-60
2023/08/28 13:20:34;;;;;;;;;;;;;;;20.60;47.94;96203.31;4241248;27;5621;-60
2023/08/28 13:22:37;;;;;;;;;;;;;;;20.65;47.74;96200.63;4248496;27;5624;-60
2023/08/28 13:24:40;;;;;;;;;;;;;;;20.65;47.58;96206.00;4244836;27;5726;-61
2023/08/28 13:26:46;;;;;;;;;;;;;;;20.67;47.73;96209.22;4243314;27;5722;-61
2023/08/28 13:28:50;;;;;;;;;;;;;;;20.70;47.54;96205.97;4248605;27;5654;-59
2023/08/28 13:30:53;;;;;;;;;;;;;;;20.78;47.45;96205.44;4243215;27;5923;-59
2023/08/28 13:32:58;;;;;;;;;;;;;;;20.82;47.75;96205.69;4249177;27;7708;-60
2023/08/28 13:35:01;;;;;;;;;;;;;;;20.87;47.80;96209.19;4251589;27;5614;-59
2023/08/28 13:37:06;;;;;;;;;;;;;;;20.88;47.41;96213.47;4245833;27;5723;-60
2023/08/28 13:39:09;;;;;;;;;;;;;;;20.85;47.20;96219.41;4248736;27;5743;-60
2023/08/28 13:41:12;;;;;;;;;;;;;;;20.69;47.05;96222.38;4247831;27;5719;-60
2023/08/28 13:43:14;;;;;;;;;;;;;;;20.46;47.25;96223.72;4248666;27;5779;-66
2023/08/28 13:45:18;;;;;;;;;;;;;;;20.39;47.94;96212.44;4251708;27;6354;-67
2023/08/28 13:47:21;;;;;;;;;;;;;;;20.42;47.73;96217.28;4246387;27;5650;-64
2023/08/28 13:49:24;;;;;;;;;;;;;;;20.47;47.93;96217.28;4252872;27;5615;-65
2023/08/28 13:51:27;;;;;;;;;;;;;;;20.54;48.21;96215.94;4244039;27;5617;-65
2023/08/28 13:53:31;;;;;;;;;;;;;;;20.61;47.84;96221.03;4241626;27;5646;-65
2023/08/28 13:55:34;;;;;;;;;;;;;;;20.68;47.86;96220.75;4246262;27;5957;-65
2023/08/28 13:57:37;;;;;;;;;;;;;;;20.72;48.14;96228.00;4248969;27;5922;-65
2023/08/28 13:59:40;;;;;;;;;;;;;;;20.74;48.01;96227.75;4249815;27;5763;-68
2023/08/28 14:01:43;;;;;;;;;;;;;;;20.76;47.88;96226.41;4246805;27;5740;-71
2023/08/28 14:03:46;;;;;;;;;;;;;;;20.78;48.19;96224.25;4255586;27;5617;-69
2023/08/28 14:05:48;;;;;;;;;;;;;;;20.76;48.21;96222.91;4247207;27;5737;-68
2023/08/28 14:07:51;;;;;;;;;;;;;;;20.76;48.25;96226.41;4244065;27;5574;-66
2023/08/28 14:09:55;;;;;;;;;;;;;;;20.79;48.23;96223.16;4249853;27;5688;-68
2023/08/28 14:11:58;;;;;;;;;;;;;;;20.84;48.20;96230.41;4244283;27;5650;-68
2023/08/28 14:14:01;;;;;;;;;;;;;;;20.85;48.22;96229.34;4246815;27;5654;-65
2023/08/28 14:16:04;;;;;;;;;;;;;;;20.89;48.59;96228.50;4248625;27;5613;-68
2023/08/28 14:18:07;;;;;;;;;;;;;;;20.93;48.58;96234.94;4243240;27;5628;-68
2023/08/28 14:20:10;;;;;;;;;;;;;;;20.97;48.34;96237.09;4241107;27;5210;-67
2023/08/28 14:22:13;;;;;;;;;;;;;;;20.98;48.57;96241.41;4252695;27;5640;-67
2023/08/28 14:24:15;;;;;;;;;;;;;;;21.00;48.66;96231.19;4245823;27;5650;-70
2023/08/28 14:26:20;;;;;;;;;;;;;;;21.03;48.73;96233.31;4238991;27;5641;-73
2023/08/28 14:28:25;;;;;;;;;;;;;;;21.07;48.57;96243.25;4250703;27;5844;-67
2023/08/28 14:30:27;;;;;;;;;;;;;;;21.06;48.38;96243.50;4247027;27;5632;-67
2023/08/28 14:32:30;;;;;;;;;;;;;;;21.03;48.65;96249.44;4245778;27;6337;-64
2023/08/28 14:34:33;;;;;;;;;;;;;;;21.03;48.48;96252.13;4248790;27;5834;-60
2023/08/28 14:36:36;;;;;;;;;;;;;;;21.03;48.73;96255.63;4240942;27;5626;-61
2023/08/28 14:38:39;;;;;;;;;;;;;;;21.03;48.34;96246.75;4247040;27;5094;-60
2023/08/28 14:40:42;;;;;;;;;;;;;;;20.97;48.10;96253.22;4251854;27;5637;-61
2023/08/28 14:42:51;;;;;;;;;;;;;;;20.84;47.92;96252.72;4252378;27;5629;-61
2023/08/28 14:44:54;;;;;;;;;;;;;;;20.75;48.13;96258.91;4252745;27;5700;-60
2023/08/28 14:46:56;;;;;;;;;;;;;;;20.73;47.99;96271.81;4246799;27;5633;-61
2023/08/28 14:49:02;;;;;;;;;;;;;;;20.69;48.01;96260.78;4242264;27;5701;-61
2023/08/28 14:51:05;;;;;;;;;;;;;;;20.71;47.99;96261.31;4251325;27;5715;-61
2023/08/28 14:53:08;;;;;;;;;;;;;;;20.70;48.03;96259.69;4251607;27;5716;-61
2023/08/28 14:55:11;;;;;;;;;;;;;;;20.70;48.01;96264.25;4250857;27;5083;-61
2023/08/28 14:57:13;;;;;;;;;;;;;;;20.66;48.46;96264.00;4251491;27;5632;-61
2023/08/28 14:59:18;;;;;;;;;;;;;;;20.55;48.34;96270.47;4242737;27;5720;-62
2023/08/28 15:01:21;;;;;;;;;;;;;;;20.47;48.89;96268.28;4244240;27;5667;-61
2023/08/28 15:03:25;;;;;;;;;;;;;;;20.34;48.93;96264.25;4246619;27;5743;-61
2023/08/28 15:05:31;;;;;;;;;;;;;;;20.30;49.09;96263.97;4251260;27;5611;-61
2023/08/28 15:07:34;;;;;;;;;;;;;;;20.26;49.20;96262.06;4258923;27;5617;-61
2023/08/28 15:09:38;;;;;;;;;;;;;;;20.27;49.33;96261.84;4245502;27;5628;-61
2023/08/28 15:11:41;;;;;;;;;;;;;;;20.32;49.13;96269.88;4250104;27;5127;-61
2023/08/28 15:13:44;;;;;;;;;;;;;;;20.40;49.32;96267.75;4249069;27;5723;-61
2023/08/28 15:15:49;;;;;;;;;;;;;;;20.37;49.12;96263.69;4241315;27;5654;-61
2023/08/28 15:17:52;;;;;;;;;;;;;;;20.34;49.51;96267.72;4241464;27;5934;-61
2023/08/28 15:19:54;;;;;;;;;;;;;;;20.25;49.08;96272.00;4243308;27;5776;-60
2023/08/28 15:21:57;;;;;;;;;;;;;;;20.21;49.71;96276.31;4244094;27;5841;-60
2023/08/28 15:24:00;;;;;;;;;;;;;;;20.18;49.80;96284.91;4242358;27;5676;-60
2023/08/28 15:26:03;;;;;;;;;;;;;;;20.06;49.34;96284.34;4240915;27;5806;-60
2023/08/28 15:28:08;;;;;;;;;;;;;;;20.00;49.88;96282.72;4239118;27;5859;-60
2023/08/28 15:30:12;;;;;;;;;;;;;;;20.06;50.00;96289.72;4238789;27;5731;-63
2023/08/28 15:32:16;;;;;;;;;;;;;;;20.12;50.10;96288.63;4240386;27;6708;-61
2023/08/28 15:34:19;;;;;;;;;;;;;;;20.18;49.81;96292.16;4251069;27;7794;-61
2023/08/28 15:36:22;;;;;;;;;;;;;;;20.19;49.70;96286.50;4248929;27;5692;-60
2023/08/28 15:38:25;;;;;;;;;;;;;;;20.15;49.50;96288.09;4247433;27;5632;-60
2023/08/28 15:40:28;;;;;;;;;;;;;;;20.04;49.19;96289.16;4251858;27;5643;-60
2023/08/28 15:42:31;;;;;;;;;;;;;;;19.97;49.58;96296.66;4249321;27;5785;-60
2023/08/28 15:44:34;;;;;;;;;;;;;;;19.93;49.42;96295.56;4245960;27;5724;-61
2023/08/28 15:46:37;;;;;;;;;;;;;;;19.98;49.88;96292.91;4243156;27;5641;-61
2023/08/28 15:48:42;;;;;;;;;;;;;;;20.00;49.71;96301.50;4248208;27;5747;-61
2023/08/28 15:50:46;;;;;;;;;;;;;;;19.96;49.50;96306.59;4248577;27;5642;-61
2023/08/28 15:52:49;;;;;;;;;;;;;;;19.99;49.38;96300.69;4251636;27;5708;-62
2023/08/28 15:54:54;;;;;;;;;;;;;;;20.06;49.58;96306.63;4248046;27;5616;-62
2023/08/28 15:56:56;;;;;;;;;;;;;;;20.12;49.47;96304.75;4245401;27;5702;-62
2023/08/28 15:58:59;;;;;;;;;;;;;;;20.11;49.62;96313.84;4249859;27;5628;-62
2023/08/28 16:01:16;;;;;;;;;;;;;;;20.07;49.21;96312.78;4239947;27;5815;-62
2023/08/28 16:03:19;;;;;;;;;;;;;;;20.04;49.30;96313.28;4249464;27;5731;-61
2023/08/28 16:05:23;;;;;;;;;;;;;;;20.09;49.57;96310.66;4244945;27;5772;-61
2023/08/28 16:07:26;;;;;;;;;;;;;;;20.04;49.60;96308.72;4246520;27;5680;-61
2023/08/28 16:09:29;;;;;;;;;;;;;;;20.02;49.66;96312.75;4246317;27;5692;-62
2023/08/28 16:11:33;;;;;;;;;;;;;;;20.04;49.45;96318.66;4246137;27;5638;-61
2023/08/28 16:13:36;;;;;;;;;;;;;;;20.10;49.93;96331.03;4249348;27;5896;-62
2023/08/28 16:15:40;;;;;;;;;;;;;;;20.14;49.85;96324.06;4249579;27;6421;-62
2023/08/28 16:17:42;;;;;;;;;;;;;;;20.09;49.90;96316.00;4246072;27;5654;-61
2023/08/28 16:19:45;;;;;;;;;;;;;;;20.08;49.99;96319.75;4243940;27;5840;-61
2023/08/28 16:21:49;;;;;;;;;;;;;;;20.06;50.20;96321.91;4247631;27;5614;-62
2023/08/28 16:23:52;;;;;;;;;;;;;;;20.11;50.06;96329.97;4245866;27;5716;-62
2023/08/28 16:25:55;;;;;;;;;;;;;;;20.14;50.26;96328.63;4244835;27;5690;-62
2023/08/28 16:27:58;;;;;;;;;;;;;;;20.18;49.98;96327.84;4248780;27;5660;-61
2023/08/28 16:30:01;;;;;;;;;;;;;;;20.21;49.95;96330.00;4241553;27;5629;-61
2023/08/28 16:32:04;;;;;;;;;;;;;;;20.17;49.74;96333.47;4245923;27;5731;-61
2023/08/28 16:34:07;;;;;;;;;;;;;;;20.04;49.77;96338.25;4242520;27;5743;-62
2023/08/28 16:36:10;;;;;;;;;;;;;;;19.99;50.18;96340.13;4251299;27;5721;-61
2023/08/28 16:38:14;;;;;;;;;;;;;;;19.93;50.40;96341.16;4251866;27;5617;-60
2023/08/28 16:40:17;;;;;;;;;;;;;;;19.84;50.17;96338.19;4243054;27;5818;-61
2023/08/28 16:42:20;;;;;;;;;;;;;;;19.87;50.26;96342.22;4251744;27;5609;-61
2023/08/28 16:44:23;;;;;;;;;;;;;;;19.86;50.36;96351.34;4250946;27;5091;-62
2023/08/28 16:46:25;;;;;;;;;;;;;;;19.81;50.36;96341.38;4244415;27;5624;-61